Time;durP1;ratioP1;P1;durP2;ratioP2;P2;SDS_P1;SDS_P2;PMS_P1;PMS_P2;Temp;Humidity;BMP_temperature;BMP_pressure;BME280_temperature;BME280_humidity;BME280_pressure;Samples;Min_cycle;Max_cycle;Signal;HPM_P1;HPM_P2
2023/08/09 00:01:30;;;;;;;2.38;1.50;;;;;;;14.86;100.00;95787.97;5044376;28;24440;-78
2023/08/09 00:03:56;;;;;;;1.80;1.42;;;;;;;14.93;100.00;95792.56;5058442;28;24442;-79
2023/08/09 00:06:23;;;;;;;1.38;1.25;;;;;;;14.97;100.00;95786.16;5059501;28;24467;-78
2023/08/09 00:08:49;;;;;;;3.42;1.67;;;;;;;15.00;100.00;95779.88;5042808;28;24443;-78
2023/08/09 00:11:17;;;;;;;2.85;1.30;;;;;;;15.09;100.00;95778.31;5057612;28;24460;-78
2023/08/09 00:13:44;;;;;;;3.13;1.55;;;;;;;15.03;100.00;95773.59;5059562;28;24442;-78
2023/08/09 00:16:10;;;;;;;1.80;1.30;;;;;;;15.06;100.00;95771.56;5060048;28;24442;-78
2023/08/09 00:18:37;;;;;;;2.17;1.40;;;;;;;15.10;100.00;95769.53;5061203;28;24432;-78
2023/08/09 00:21:03;;;;;;;2.95;1.48;;;;;;;15.03;100.00;95777.03;5044656;28;24431;-78
2023/08/09 00:23:30;;;;;;;2.17;1.40;;;;;;;15.05;100.00;95772.50;5042066;28;24436;-78
2023/08/09 00:25:58;;;;;;;2.60;1.63;;;;;;;15.04;100.00;95759.59;5046591;28;24424;-78
2023/08/09 00:28:26;;;;;;;2.83;1.38;;;;;;;15.08;100.00;95766.22;5039834;28;24443;-78
2023/08/09 00:30:52;;;;;;;1.55;1.40;;;;;;;15.06;100.00;95758.53;5054981;28;24474;-78
2023/08/09 00:33:19;;;;;;;1.88;1.50;;;;;;;15.04;100.00;95755.19;5039760;28;24436;-78
2023/08/09 00:35:45;;;;;;;4.22;1.60;;;;;;;15.05;100.00;95756.84;5040226;28;24428;-78
2023/08/09 00:38:12;;;;;;;3.92;1.30;;;;;;;15.09;100.00;95745.25;5048574;28;24446;-78
2023/08/09 00:40:39;;;;;;;2.92;1.65;;;;;;;15.00;100.00;95744.19;5058825;28;24550;-78
2023/08/09 00:43:06;;;;;;;1.98;1.42;;;;;;;15.09;100.00;95734.81;5043088;28;24436;-78
2023/08/09 00:45:34;;;;;;;1.77;1.42;;;;;;;14.94;100.00;95746.47;5039708;28;24585;-78
2023/08/09 00:48:01;;;;;;;4.38;1.42;;;;;;;14.94;100.00;95739.50;5039427;28;24436;-78
2023/08/09 00:50:28;;;;;;;1.75;1.40;;;;;;;14.95;100.00;95738.53;5038465;28;24451;-78
2023/08/09 00:52:55;;;;;;;3.15;1.30;;;;;;;14.84;100.00;95741.16;5041240;28;24451;-77
2023/08/09 00:55:21;;;;;;;3.17;1.48;;;;;;;14.90;100.00;95737.22;5056382;28;24432;-78
2023/08/09 00:57:49;;;;;;;5.07;1.50;;;;;;;14.87;100.00;95733.09;5038824;28;24450;-78
2023/08/09 01:00:16;;;;;;;2.90;1.73;;;;;;;14.83;100.00;95736.91;5037415;28;24610;-78
2023/08/09 01:02:44;;;;;;;2.80;1.65;;;;;;;14.90;100.00;95742.44;5037460;28;24439;-78
2023/08/09 01:05:11;;;;;;;4.30;1.50;;;;;;;14.89;100.00;95730.38;5053387;28;24451;-78
2023/08/09 01:07:45;;;;;;;2.70;1.48;;;;;;;14.92;100.00;95741.38;5037243;28;24427;-78
2023/08/09 01:10:15;;;;;;;2.95;1.50;;;;;;;14.98;100.00;95733.06;5036761;28;24455;-78
2023/08/09 01:12:47;;;;;;;2.47;1.73;;;;;;;15.00;100.00;95728.53;5036691;28;24845;-78
2023/08/09 01:15:19;;;;;;;3.40;1.60;;;;;;;15.04;100.00;95725.69;5053255;28;25039;-77
2023/08/09 01:17:49;;;;;;;2.30;1.40;;;;;;;15.02;100.00;95723.22;5051961;28;24501;-77
2023/08/09 01:20:17;;;;;;;3.45;1.27;;;;;;;15.04;100.00;95718.69;5036333;28;24431;-78
2023/08/09 01:22:51;;;;;;;2.65;1.33;;;;;;;15.04;100.00;95721.28;5035742;28;24447;-78
2023/08/09 01:25:19;;;;;;;2.25;1.20;;;;;;;15.07;100.00;95709.78;5035916;28;24436;-78
2023/08/09 01:27:46;;;;;;;3.75;1.40;;;;;;;15.17;100.00;95716.75;5041371;28;24439;-78
2023/08/09 01:30:13;;;;;;;2.75;1.48;;;;;;;15.15;100.00;95713.41;5055195;28;25002;-78
2023/08/09 01:32:39;;;;;;;1.70;1.20;;;;;;;15.09;100.00;95716.56;5044262;28;24451;-78
2023/08/09 01:35:07;;;;;;;3.42;1.25;;;;;;;15.10;100.00;95720.81;5035975;28;24438;-78
2023/08/09 01:37:38;;;;;;;2.77;1.40;;;;;;;15.14;100.00;95726.59;5054061;28;24442;-78
2023/08/09 01:40:09;;;;;;;2.60;1.30;;;;;;;15.17;100.00;95732.41;5047959;28;24428;-78
2023/08/09 01:42:39;;;;;;;2.22;1.30;;;;;;;15.13;100.00;95732.75;5035868;28;24435;-78
2023/08/09 01:45:07;;;;;;;3.72;1.52;;;;;;;15.08;100.00;95738.34;5050513;28;24519;-78
2023/08/09 01:47:35;;;;;;;1.60;1.40;;;;;;;15.13;100.00;95738.81;5035544;28;24447;-78
2023/08/09 01:50:02;;;;;;;3.08;1.50;;;;;;;15.06;100.00;95745.50;5040811;28;24470;-78
2023/08/09 01:52:28;;;;;;;3.40;1.40;;;;;;;14.98;100.00;95743.50;5043009;28;24434;-78
2023/08/09 01:54:55;;;;;;;3.47;1.50;;;;;;;15.03;100.00;95739.69;5049972;28;24438;-77
2023/08/09 01:57:22;;;;;;;2.60;1.30;;;;;;;15.03;100.00;95742.28;5059685;28;24494;-77
2023/08/09 01:59:50;;;;;;;2.03;1.30;;;;;;;15.05;100.00;95751.63;5040798;28;24447;-77
2023/08/09 02:02:16;;;;;;;2.70;1.40;;;;;;;14.98;100.00;95751.31;5049348;28;25024;-77
2023/08/09 02:04:43;;;;;;;2.00;1.20;;;;;;;14.96;100.00;95755.81;5047340;28;24432;-77
2023/08/09 02:07:09;;;;;;;2.70;1.40;;;;;;;14.97;100.00;95754.03;5041104;28;24431;-78
2023/08/09 02:09:36;;;;;;;1.98;1.20;;;;;;;14.97;100.00;95757.47;5059012;28;24446;-78
2023/08/09 02:12:02;;;;;;;2.13;1.27;;;;;;;14.96;100.00;95749.78;5061865;28;25005;-78
2023/08/09 02:14:29;;;;;;;3.60;1.08;;;;;;;14.96;100.00;95752.38;5062800;28;24438;-78
2023/08/09 02:16:59;;;;;;;2.42;1.30;;;;;;;15.03;100.00;95753.56;5048751;28;24436;-78
2023/08/09 02:19:25;;;;;;;3.23;1.40;;;;;;;14.99;100.00;95750.38;5040611;28;24547;-76
2023/08/09 02:21:52;;;;;;;3.10;1.40;;;;;;;15.03;100.00;95755.34;5038323;28;24463;-76
2023/08/09 02:24:18;;;;;;;2.90;1.40;;;;;;;15.02;100.00;95759.72;5033823;28;24447;-76
2023/08/09 02:26:45;;;;;;;3.47;1.42;;;;;;;15.03;100.00;95750.13;5039512;28;24983;-76
2023/08/09 02:29:11;;;;;;;2.90;1.33;;;;;;;14.98;100.00;95746.09;5040512;28;24435;-75
2023/08/09 02:31:38;;;;;;;2.05;1.40;;;;;;;15.00;100.00;95743.38;5039149;28;24691;-76
2023/08/09 02:34:06;;;;;;;2.63;1.50;;;;;;;15.00;100.00;95745.97;5033011;28;24466;-76
2023/08/09 02:36:32;;;;;;;1.88;1.10;;;;;;;14.98;100.00;95753.94;5058496;28;24505;-76
2023/08/09 02:38:59;;;;;;;2.92;1.23;;;;;;;14.96;100.00;95752.38;5045362;28;24439;-76
2023/08/09 02:41:25;;;;;;;1.85;1.25;;;;;;;14.97;100.00;95752.25;5033483;28;24463;-78
2023/08/09 02:43:52;;;;;;;3.25;1.33;;;;;;;14.98;100.00;95743.50;5060312;28;24439;-78
2023/08/09 02:46:18;;;;;;;2.55;1.30;;;;;;;14.99;100.00;95739.09;5044136;28;24428;-78
2023/08/09 02:48:45;;;;;;;4.82;1.27;;;;;;;14.98;100.00;95745.25;5054389;28;24439;-78
2023/08/09 02:51:12;;;;;;;1.38;1.08;;;;;;;15.02;100.00;95746.69;5062988;28;24456;-78
2023/08/09 02:53:58;;;;;;;5.07;1.45;;;;;;;14.93;100.00;95753.47;5062135;28;24458;-79
2023/08/09 02:56:24;;;;;;;2.55;1.20;;;;;;;14.88;100.00;95753.00;5063480;28;24465;-79
2023/08/09 02:58:51;;;;;;;2.83;1.33;;;;;;;14.88;100.00;95752.19;5040673;28;24448;-78
2023/08/09 03:01:17;;;;;;;4.95;1.30;;;;;;;14.85;100.00;95761.06;5041018;28;24432;-78
2023/08/09 03:03:44;;;;;;;1.88;1.20;;;;;;;14.91;100.00;95754.56;5050770;28;24438;-78
2023/08/09 03:06:10;;;;;;;2.38;1.25;;;;;;;14.91;100.00;95759.75;5068248;28;24427;-78
2023/08/09 03:08:38;;;;;;;4.43;1.23;;;;;;;14.92;100.00;95761.41;5067387;28;24469;-79
2023/08/09 03:11:05;;;;;;;2.83;1.30;;;;;;;14.88;100.00;95757.41;5067114;28;24466;-79
2023/08/09 03:13:31;;;;;;;2.57;1.60;;;;;;;14.86;100.00;95762.72;5048976;28;24472;-78
2023/08/09 03:15:58;;;;;;;2.17;1.20;;;;;;;14.85;100.00;95774.09;5046587;28;24446;-78
2023/08/09 03:18:24;;;;;;;1.75;1.30;;;;;;;14.82;100.00;95766.53;5046975;28;24444;-77
2023/08/09 03:20:50;;;;;;;2.00;1.33;;;;;;;14.88;100.00;95766.03;5059117;28;25016;-77
2023/08/09 03:23:17;;;;;;;4.47;1.70;;;;;;;14.92;100.00;95770.06;5065490;28;24492;-78
2023/08/09 03:25:45;;;;;;;2.13;1.10;;;;;;;14.95;100.00;95753.34;5065374;28;24798;-78
2023/08/09 03:28:12;;;;;;;3.40;1.40;;;;;;;14.98;100.00;95759.16;5065082;28;24431;-78
2023/08/09 03:30:38;;;;;;;1.40;1.10;;;;;;;14.97;100.00;95761.88;5061529;28;24455;-77
2023/08/09 03:33:05;;;;;;;2.30;1.10;;;;;;;14.97;100.00;95757.47;5057222;28;24559;-75
2023/08/09 03:35:31;;;;;;;2.75;1.40;;;;;;;14.93;100.00;95760.47;5034730;28;24439;-75
2023/08/09 03:37:59;;;;;;;2.50;1.20;;;;;;;14.91;100.00;95762.38;5037695;28;24435;-75
2023/08/09 03:40:25;;;;;;;1.73;1.38;;;;;;;14.95;100.00;95766.38;5042861;28;24435;-75
2023/08/09 03:42:53;;;;;;;3.30;1.57;;;;;;;14.88;100.00;95768.66;5032757;28;24459;-75
2023/08/09 03:45:22;;;;;;;1.73;1.13;;;;;;;14.93;100.00;95765.66;5048707;28;24446;-76
2023/08/09 03:47:49;;;;;;;2.25;1.50;;;;;;;14.98;100.00;95771.34;5052566;28;24442;-75
2023/08/09 03:50:17;;;;;;;3.35;1.10;;;;;;;14.96;100.00;95768.03;5051911;28;24443;-75
2023/08/09 03:52:43;;;;;;;3.08;1.77;;;;;;;14.98;100.00;95768.72;5052239;28;25005;-75
2023/08/09 03:55:10;;;;;;;2.75;1.10;;;;;;;14.97;100.00;95769.69;5037615;28;24431;-75
2023/08/09 03:57:37;;;;;;;2.92;1.17;;;;;;;14.96;100.00;95781.06;5050251;28;24542;-75
2023/08/09 04:00:08;;;;;;;4.30;1.40;;;;;;;14.94;100.00;95780.34;5048722;28;24459;-76
2023/08/09 04:02:35;;;;;;;2.20;1.52;;;;;;;14.91;100.00;95788.44;5034607;28;24471;-75
2023/08/09 04:05:01;;;;;;;1.58;1.17;;;;;;;14.95;100.00;95782.84;5031501;28;24561;-75
2023/08/09 04:07:28;;;;;;;2.42;1.38;;;;;;;14.93;100.00;95786.53;5032505;28;24460;-74
2023/08/09 04:09:54;;;;;;;1.85;1.30;;;;;;;14.88;100.00;95773.03;5031822;28;24442;-72
2023/08/09 04:12:21;;;;;;;2.13;1.40;;;;;;;14.87;100.00;95776.56;5033642;28;24662;-74
2023/08/09 04:14:47;;;;;;;1.88;1.40;;;;;;;14.83;100.00;95783.84;5041217;28;24448;-74
2023/08/09 04:17:15;;;;;;;1.52;1.17;;;;;;;14.84;100.00;95780.28;5051197;28;25005;-73
2023/08/09 04:19:42;;;;;;;2.03;1.45;;;;;;;14.85;100.00;95775.88;5051454;28;24446;-74
2023/08/09 04:22:09;;;;;;;3.65;1.70;;;;;;;14.78;100.00;95775.53;5046221;28;24432;-74
2023/08/09 04:24:35;;;;;;;2.85;1.52;;;;;;;14.83;100.00;95783.84;5031810;28;24435;-73
2023/08/09 04:27:02;;;;;;;2.60;1.48;;;;;;;14.77;100.00;95781.72;5032200;28;24447;-74
2023/08/09 04:29:29;;;;;;;1.60;1.50;;;;;;;14.77;100.00;95781.72;5031568;28;25067;-73
2023/08/09 04:31:55;;;;;;;3.15;1.50;;;;;;;14.77;100.00;95781.72;5035208;28;24452;-73
2023/08/09 04:34:23;;;;;;;2.72;1.40;;;;;;;14.80;100.00;95783.25;5050892;28;24438;-74
2023/08/09 04:36:52;;;;;;;2.00;1.27;;;;;;;14.85;100.00;95775.88;5051305;28;24463;-74
2023/08/09 04:39:18;;;;;;;2.60;1.40;;;;;;;14.87;100.00;95790.47;5038222;28;24439;-74
2023/08/09 04:41:45;;;;;;;2.38;1.58;;;;;;;14.88;100.00;95780.88;5033057;28;24523;-74
2023/08/09 04:44:11;;;;;;;2.05;1.33;;;;;;;14.88;100.00;95792.13;5051564;28;24470;-74
2023/08/09 04:46:38;;;;;;;1.67;1.35;;;;;;;14.95;100.00;95779.44;5051399;28;24459;-74
2023/08/09 04:49:04;;;;;;;5.05;1.15;;;;;;;14.95;100.00;95787.25;5039294;28;24436;-73
2023/08/09 04:51:32;;;;;;;2.03;1.35;;;;;;;14.95;100.00;95782.84;5032482;28;24443;-74
2023/08/09 04:53:58;;;;;;;5.57;1.58;;;;;;;14.99;100.00;95781.66;5047588;28;24439;-73
2023/08/09 04:56:25;;;;;;;2.13;1.48;;;;;;;14.98;100.00;95784.38;5038142;28;25113;-74
2023/08/09 04:58:51;;;;;;;4.60;1.38;;;;;;;15.01;100.00;95784.97;5051225;28;24435;-73
2023/08/09 05:01:18;;;;;;;6.77;1.47;;;;;;;15.06;100.00;95787.22;5050855;28;24439;-73
2023/08/09 05:03:44;;;;;;;2.03;1.30;;;;;;;15.13;100.00;95777.09;5049789;28;24432;-73
2023/08/09 05:06:10;;;;;;;2.10;1.38;;;;;;;15.11;100.00;95777.22;5031156;28;24424;-74
2023/08/09 05:08:38;;;;;;;1.60;1.10;;;;;;;15.16;100.00;95785.50;5038605;28;24478;-74
2023/08/09 05:11:05;;;;;;;1.98;1.35;;;;;;;15.18;100.00;95786.22;5038570;28;24454;-74
2023/08/09 05:13:31;;;;;;;2.75;1.40;;;;;;;15.17;100.00;95779.34;5038612;28;24435;-76
2023/08/09 05:15:58;;;;;;;1.98;1.42;;;;;;;15.18;100.00;95777.56;5037864;28;24431;-74
2023/08/09 05:18:24;;;;;;;2.08;1.17;;;;;;;15.16;100.00;95780.28;5030358;28;24796;-76
2023/08/09 05:20:49;;;;;;;1.92;1.20;;;;;;;15.19;100.00;95785.25;5036525;28;24462;-75
2023/08/09 05:23:16;;;;;;;3.20;1.50;;;;;;;15.23;100.00;95778.84;5044161;28;24973;-75
2023/08/09 05:25:44;;;;;;;2.92;1.50;;;;;;;15.22;100.00;95777.19;5049940;28;25013;-73
2023/08/09 05:28:10;;;;;;;5.40;1.27;;;;;;;15.27;100.00;95778.59;5049917;28;24799;-72
2023/08/09 05:30:37;;;;;;;2.40;1.40;;;;;;;15.28;100.00;95777.63;5043093;28;24768;-73
2023/08/09 05:33:04;;;;;;;2.80;1.60;;;;;;;15.28;100.00;95777.63;5041672;28;24985;-72
2023/08/09 05:35:30;;;;;;;3.45;1.85;;;;;;;15.27;100.00;95783.81;5050474;28;24956;-72
2023/08/09 05:37:57;;;;;;;4.07;1.63;;;;;;;15.34;100.00;95787.59;5048988;28;24447;-73
2023/08/09 05:40:23;;;;;;;4.07;1.38;;;;;;;15.35;100.00;95790.09;5035917;28;24850;-73
2023/08/09 05:42:51;;;;;;;3.78;1.50;;;;;;;15.36;100.00;95788.31;5041655;28;24450;-72
2023/08/09 05:45:18;;;;;;;2.42;1.50;;;;;;;15.37;100.00;95789.94;5030776;28;24440;-70
2023/08/09 05:47:44;;;;;;;2.00;1.33;;;;;;;15.38;100.00;95789.81;5047419;28;24435;-70
2023/08/09 05:50:11;;;;;;;2.80;1.52;;;;;;;15.49;100.00;95783.72;5029109;28;24843;-71
2023/08/09 05:52:37;;;;;;;4.53;1.53;;;;;;;15.49;100.00;95787.16;5025585;28;24596;-70
2023/08/09 05:55:05;;;;;;;1.65;1.17;;;;;;;15.56;100.00;95784.03;5040178;28;24431;-71
2023/08/09 05:57:31;;;;;;;2.47;1.40;;;;;;;15.55;100.00;95780.59;5049188;28;24447;-72
2023/08/09 05:59:59;;;;;;;2.67;1.40;;;;;;;15.57;100.00;95780.47;5034221;28;24444;-73
2023/08/09 06:02:26;;;;;;;4.82;1.90;;;;;;;15.54;100.00;95778.97;5044632;28;24993;-73
2023/08/09 06:04:52;;;;;;;2.83;1.40;;;;;;;15.60;100.00;95777.63;5031155;28;24440;-73
2023/08/09 06:07:19;;;;;;;1.92;1.23;;;;;;;15.59;100.00;95782.00;5030690;28;24458;-74
2023/08/09 06:09:45;;;;;;;8.55;1.67;;;;;;;15.60;100.00;95790.66;5030708;28;24804;-72
2023/08/09 06:12:11;;;;;;;2.33;1.40;;;;;;;15.62;100.00;95788.78;5034906;28;24455;-73
2023/08/09 06:14:38;;;;;;;6.03;2.00;;;;;;;15.66;100.00;95787.59;5043821;28;24439;-73
2023/08/09 06:17:06;;;;;;;4.63;2.28;;;;;;;15.77;100.00;95794.53;5039833;28;24443;-71
2023/08/09 06:19:33;;;;;;;8.27;2.40;;;;;;;15.84;100.00;95800.91;5050034;28;24446;-71
2023/08/09 06:21:59;;;;;;;5.27;1.50;;;;;;;15.82;100.00;95800.19;5049741;28;24864;-68
2023/08/09 06:24:26;;;;;;;2.30;1.40;;;;;;;15.84;100.00;95791.28;5049618;28;24509;-71
2023/08/09 06:26:52;;;;;;;5.35;1.50;;;;;;;15.83;100.00;95792.22;5049878;28;24458;-70
2023/08/09 06:29:19;;;;;;;2.30;1.40;;;;;;;15.87;100.00;95801.47;5049644;28;25001;-72
2023/08/09 06:31:46;;;;;;;2.58;1.42;;;;;;;15.93;100.00;95806.19;5049702;28;24459;-72
2023/08/09 06:34:14;;;;;;;2.10;1.55;;;;;;;15.97;100.00;95811.97;5050679;28;24519;-73
2023/08/09 06:36:41;;;;;;;2.60;1.35;;;;;;;16.01;100.00;95804.72;5031615;28;24432;-72
2023/08/09 06:39:07;;;;;;;2.30;1.30;;;;;;;16.07;100.00;95809.44;5030604;28;24572;-74
2023/08/09 06:41:35;;;;;;;1.98;1.40;;;;;;;16.02;100.00;95809.81;5029442;28;24447;-73
2023/08/09 06:44:02;;;;;;;5.72;1.67;;;;;;;16.12;100.00;95813.28;5038388;28;24439;-71
2023/08/09 06:46:28;;;;;;;1.87;1.50;;;;;;;16.23;100.00;95811.56;5030576;28;24526;-74
2023/08/09 06:48:54;;;;;;;2.75;1.40;;;;;;;16.21;100.00;95814.31;5044288;28;24978;-73
2023/08/09 06:51:23;;;;;;;4.78;1.50;;;;;;;16.21;100.00;95828.22;5030040;28;24965;-74
2023/08/09 06:53:49;;;;;;;4.57;2.00;;;;;;;16.17;100.00;95826.00;5031939;28;25042;-73
2023/08/09 06:56:16;;;;;;;4.07;1.73;;;;;;;16.19;100.00;95827.50;5049510;28;25013;-74
2023/08/09 06:58:42;;;;;;;2.10;1.20;;;;;;;16.14;100.00;95821.03;5041421;28;24475;-74
2023/08/09 07:01:09;;;;;;;3.10;1.35;;;;;;;16.14;100.00;95828.88;5042602;28;24439;-74
2023/08/09 07:03:36;;;;;;;5.00;2.25;;;;;;;16.14;100.00;95829.69;5045858;28;24467;-70
2023/08/09 07:06:03;;;;;;;3.50;1.70;;;;;;;16.08;100.00;95824.97;5047080;28;24574;-71
2023/08/09 07:08:31;;;;;;;5.53;1.95;;;;;;;16.11;100.00;95834.34;5029661;28;24443;-70
2023/08/09 07:10:57;;;;;;;4.15;1.75;;;;;;;16.04;100.00;95834.03;5039795;28;24442;-70
2023/08/09 07:13:25;;;;;;;1.90;1.25;;;;;;;16.01;100.00;95836.06;5035815;28;24474;-70
2023/08/09 07:15:51;;;;;;;2.30;1.23;;;;;;;16.05;100.00;95835.66;5046946;28;24970;-70
2023/08/09 07:18:18;;;;;;;2.00;1.30;;;;;;;16.05;100.00;95847.91;5049738;28;24419;-71
2023/08/09 07:20:44;;;;;;;1.85;1.20;;;;;;;16.07;100.00;95846.00;5041429;28;24451;-70
2023/08/09 07:23:11;;;;;;;4.47;1.80;;;;;;;16.06;100.00;95844.34;5029752;28;24416;-70
2023/08/09 07:25:39;;;;;;;3.47;1.52;;;;;;;16.08;100.00;95843.25;5044433;28;24528;-70
2023/08/09 07:28:06;;;;;;;3.80;1.48;;;;;;;16.04;100.00;95851.47;5045513;28;24435;-71
2023/08/09 07:30:32;;;;;;;2.90;1.60;;;;;;;16.13;100.00;95851.56;5047628;28;24811;-70
2023/08/09 07:32:59;;;;;;;7.00;2.00;;;;;;;16.25;100.00;95849.69;5039492;28;24454;-70
2023/08/09 07:35:25;;;;;;;4.60;1.77;;;;;;;16.30;100.00;95852.72;5029711;28;24443;-71
2023/08/09 07:37:52;;;;;;;2.67;1.40;;;;;;;16.39;100.00;95851.16;5029822;28;24442;-70
2023/08/09 07:40:18;;;;;;;2.55;1.30;;;;;;;16.53;100.00;95845.53;5044601;28;24438;-70
2023/08/09 07:42:46;;;;;;;4.72;1.70;;;;;;;16.54;100.00;95844.63;5029428;28;25196;-70
2023/08/09 07:45:13;;;;;;;4.47;1.70;;;;;;;16.68;100.00;95852.06;5029796;28;24446;-70
2023/08/09 07:47:41;;;;;;;4.00;1.45;;;;;;;16.76;100.00;95845.38;5044014;28;24442;-70
2023/08/09 07:50:08;;;;;;;2.83;1.55;;;;;;;16.86;100.00;95854.09;5050300;28;24561;-70
2023/08/09 07:52:35;;;;;;;4.50;2.00;;;;;;;16.94;100.00;95859.50;5032967;28;24463;-70
2023/08/09 07:55:02;;;;;;;7.03;1.90;;;;;;;16.95;100.00;95862.97;5033179;28;24427;-70
2023/08/09 07:57:28;;;;;;;3.15;1.75;;;;;;;17.04;100.00;95862.97;5033294;28;24454;-70
2023/08/09 07:59:56;;;;;;;3.05;1.60;;;;;;;17.16;100.00;95863.69;5048680;28;24435;-71
2023/08/09 08:02:22;;;;;;;3.13;1.70;;;;;;;17.30;100.00;95865.94;5034621;28;24435;-71
2023/08/09 08:04:49;;;;;;;6.57;1.95;;;;;;;17.44;100.00;95848.19;5031663;28;24432;-71
2023/08/09 08:07:15;;;;;;;3.78;1.80;;;;;;;17.66;100.00;95867.06;5035720;28;24443;-71
2023/08/09 08:09:42;;;;;;;2.22;1.30;;;;;;;17.80;100.00;95875.53;5046900;28;24509;-71
2023/08/09 08:12:09;;;;;;;3.03;1.25;;;;;;;17.89;100.00;95872.06;5034450;28;24455;-71
2023/08/09 08:14:36;;;;;;;2.40;1.48;;;;;;;17.93;100.00;95872.63;5022490;28;24471;-71
2023/08/09 08:17:04;;;;;;;2.20;1.27;;;;;;;18.03;100.00;95861.16;5028856;28;24432;-71
2023/08/09 08:19:31;;;;;;;2.63;1.30;;;;;;;18.10;100.00;95864.06;5032711;28;24436;-71
2023/08/09 08:21:57;;;;;;;2.55;1.48;;;;;;;18.12;100.00;95868.16;5046321;28;24442;-70
2023/08/09 08:24:25;;;;;;;2.10;1.13;;;;;;;18.19;100.00;95880.72;5037741;28;25084;-70
2023/08/09 08:26:53;;;;;;;3.55;1.60;;;;;;;18.01;100.00;95875.38;5022005;28;24803;-70
2023/08/09 08:29:20;;;;;;;2.57;1.47;;;;;;;18.01;100.00;95886.66;5039907;28;24570;-69
2023/08/09 08:31:46;;;;;;;3.72;1.70;;;;;;;17.98;100.00;95891.34;5032133;28;25028;-70
2023/08/09 08:34:14;;;;;;;2.13;1.50;;;;;;;17.82;100.00;95890.13;5047516;28;24512;-70
2023/08/09 08:36:41;;;;;;;2.95;1.60;;;;;;;17.79;100.00;95900.06;5033355;28;24497;-70
2023/08/09 08:39:14;;;;;;;2.17;1.40;;;;;;;17.71;100.00;95903.31;5046460;28;25019;-70
2023/08/09 08:41:41;;;;;;;3.65;1.40;;;;;;;17.76;100.00;95903.78;5035291;28;24582;-70
2023/08/09 08:44:07;;;;;;;3.22;1.60;;;;;;;17.69;100.00;95907.03;5048352;28;24446;-70
2023/08/09 08:46:34;;;;;;;2.75;1.35;;;;;;;17.64;100.00;95910.06;5040216;28;24443;-71
2023/08/09 08:49:05;;;;;;;4.07;1.95;;;;;;;17.70;100.00;95921.81;5048615;28;24530;-71
2023/08/09 08:51:34;;;;;;;3.13;1.52;;;;;;;17.70;100.00;95919.19;5036033;28;24986;-70
2023/08/09 08:54:01;;;;;;;6.72;1.65;;;;;;;17.79;100.00;95915.78;5020669;28;25025;-71
2023/08/09 08:56:28;;;;;;;3.15;1.50;;;;;;;17.87;100.00;95916.75;5051857;28;24841;-70
2023/08/09 08:58:55;;;;;;;5.05;1.52;;;;;;;17.97;100.00;95911.50;5041041;28;24450;-70
2023/08/09 09:01:23;;;;;;;4.03;1.73;;;;;;;17.97;100.00;95906.25;5031557;28;24427;-71
2023/08/09 09:03:49;;;;;;;2.15;1.48;;;;;;;17.96;100.00;95912.47;5047841;28;24462;-71
2023/08/09 09:06:16;;;;;;;4.47;1.93;;;;;;;17.87;100.00;95919.38;5046191;28;24443;-71
2023/08/09 09:08:44;;;;;;;2.95;1.52;;;;;;;18.01;100.00;95918.13;5023745;28;24455;-70
2023/08/09 09:11:18;;;;;;;3.83;1.90;;;;;;;17.95;100.00;95920.44;5034765;28;24513;-70
2023/08/09 09:13:47;;;;;;;4.65;1.70;;;;;;;17.86;100.00;95920.31;5031652;28;24455;-71
2023/08/09 09:16:15;;;;;;;4.65;1.70;;;;;;;17.84;100.00;95924.06;5041005;28;24989;-71
2023/08/09 09:18:42;;;;;;;4.05;1.70;;;;;;;17.77;100.00;95926.41;5051196;28;24553;-70
2023/08/09 09:21:09;;;;;;;2.70;1.50;;;;;;;17.72;100.00;95923.31;5033774;28;24443;-70
2023/08/09 09:23:37;;;;;;;3.75;1.67;;;;;;;17.79;100.00;95929.69;5031392;28;24478;-71
2023/08/09 09:26:08;;;;;;;2.75;1.50;;;;;;;17.87;100.00;95927.25;5031631;28;24807;-68
2023/08/09 09:28:42;;;;;;;4.82;1.40;;;;;;;17.97;100.00;95923.78;5033277;28;24440;-71
2023/08/09 09:31:10;;;;;;;2.90;1.63;;;;;;;18.02;100.00;95919.78;5047831;28;25186;-71
2023/08/09 09:33:37;;;;;;;2.92;1.60;;;;;;;18.03;100.00;95921.44;5031305;28;24517;-71
2023/08/09 09:36:04;;;;;;;5.50;1.90;;;;;;;18.01;100.00;95925.97;5035989;28;24447;-70
2023/08/09 09:38:32;;;;;;;4.03;1.70;;;;;;;18.06;100.00;95929.03;5041265;28;24454;-70
2023/08/09 09:41:00;;;;;;;2.65;1.60;;;;;;;17.92;100.00;95929.44;5046098;28;24427;-71
2023/08/09 09:43:32;;;;;;;3.00;1.77;;;;;;;17.90;100.00;95937.41;5039861;28;25049;-71
2023/08/09 09:46:00;;;;;;;3.65;1.55;;;;;;;18.04;100.00;95935.38;5050850;28;24462;-71
2023/08/09 09:48:27;;;;;;;2.15;1.70;;;;;;;18.25;100.00;95935.22;5040881;28;24440;-70
2023/08/09 09:50:54;;;;;;;4.47;1.63;;;;;;;18.30;100.00;95940.88;5030649;28;24444;-71
2023/08/09 09:53:21;;;;;;;4.35;2.00;;;;;;;18.34;100.00;95927.34;5030733;28;24807;-71
2023/08/09 09:55:48;;;;;;;3.92;1.38;;;;;;;18.36;100.00;95927.22;5046194;28;24991;-71
2023/08/09 09:58:14;;;;;;;6.87;1.97;;;;;;;18.23;100.00;95931.91;5030676;28;24515;-71
2023/08/09 10:00:47;;;;;;;5.55;1.77;;;;;;;18.22;100.00;95941.56;5035600;28;24851;-71
2023/08/09 10:03:16;;;;;;;4.30;2.10;;;;;;;17.96;100.00;95940.47;5027223;28;24996;-70
2023/08/09 10:05:46;;;;;;;2.90;1.55;;;;;;;17.95;100.00;95942.28;5035429;28;24428;-71
2023/08/09 10:08:14;;;;;;;6.07;2.10;;;;;;;17.96;100.00;95935.22;5034569;28;24515;-71
2023/08/09 10:10:43;;;;;;;2.30;1.30;;;;;;;18.07;100.00;95937.72;5036166;28;24543;-71
2023/08/09 10:13:12;;;;;;;4.15;1.42;;;;;;;18.20;100.00;95935.63;5042837;28;24448;-71
2023/08/09 10:15:47;;;;;;;2.35;1.30;;;;;;;18.02;100.00;95930.28;5037661;28;24442;-71
2023/08/09 10:18:19;;;;;;;2.95;1.65;;;;;;;17.99;100.00;95937.59;5049987;28;24562;-71
2023/08/09 10:20:50;;;;;;;4.32;1.67;;;;;;;18.08;100.00;95934.94;5023654;28;24436;-71
2023/08/09 10:23:21;;;;;;;3.20;1.50;;;;;;;18.16;100.00;95938.66;5043438;28;24792;-71
2023/08/09 10:25:50;;;;;;;8.53;1.90;;;;;;;18.23;100.00;95942.41;5019266;28;24467;-73
2023/08/09 10:28:17;;;;;;;5.20;1.70;;;;;;;18.22;100.00;95936.31;5036764;28;24466;-73
2023/08/09 10:30:47;;;;;;;3.08;1.63;;;;;;;18.27;100.00;95943.75;5030074;28;24563;-73
2023/08/09 10:33:18;;;;;;;4.80;1.42;;;;;;;18.43;100.00;95937.94;5045537;28;24522;-74
2023/08/09 10:35:48;;;;;;;5.90;1.67;;;;;;;18.58;100.00;95932.13;5046339;28;24466;-73
2023/08/09 10:38:15;;;;;;;5.47;1.55;;;;;;;18.97;100.00;95923.34;5037451;28;24431;-73
2023/08/09 10:40:50;;;;;;;3.10;1.77;;;;;;;19.04;100.00;95929.66;5039768;28;24530;-73
2023/08/09 10:43:20;;;;;;;3.53;1.73;;;;;;;19.22;100.00;95933.19;5044775;28;24427;-73
2023/08/09 10:45:49;;;;;;;2.95;1.48;;;;;;;19.24;100.00;95931.22;5049773;28;24518;-74
2023/08/09 10:48:23;;;;;;;3.83;1.67;;;;;;;19.05;100.00;95933.94;5049997;28;24427;-74
2023/08/09 10:51:03;;;;;;;5.35;1.60;;;;;;;19.23;100.00;95928.75;5049936;28;24411;-72
2023/08/09 10:53:29;;;;;;;4.32;1.42;;;;;;;19.25;100.00;95932.91;5036363;28;24455;-72
2023/08/09 10:55:58;;;;;;;3.15;1.40;;;;;;;19.23;100.00;95926.13;5030624;28;24435;-73
2023/08/09 10:58:29;;;;;;;5.43;1.80;;;;;;;19.25;100.00;95939.94;5033258;28;24573;-72
2023/08/09 11:00:57;;;;;;;2.28;1.50;;;;;;;19.43;100.00;95934.72;5048922;28;24866;-72
2023/08/09 11:03:23;;;;;;;3.67;1.50;;;;;;;19.33;100.00;95935.63;5049864;28;24986;-73
2023/08/09 11:05:50;;;;;;;3.60;1.30;;;;;;;19.32;100.00;95935.78;5034319;28;24994;-74
2023/08/09 11:08:18;;;;;;;3.20;1.40;;;;;;;19.34;100.00;95936.44;5029970;28;24451;-74
2023/08/09 11:10:48;;;;;;;3.92;1.70;;;;;;;19.14;100.00;95945.41;5029684;28;24521;-74
2023/08/09 11:13:15;;;;;;;3.08;1.73;;;;;;;19.09;97.83;95930.88;5030011;28;24448;-74
2023/08/09 11:15:44;;;;;;;4.53;1.58;;;;;;;19.20;99.34;95932.50;5038054;28;24435;-74
2023/08/09 11:18:12;;;;;;;2.28;1.30;;;;;;;19.33;97.47;95934.78;5046632;28;24463;-73
2023/08/09 11:20:39;;;;;;;6.67;1.67;;;;;;;19.46;97.16;95931.81;5029591;28;24525;-72
2023/08/09 11:23:06;;;;;;;3.45;1.60;;;;;;;19.71;97.59;95936.38;5040225;28;24799;-72
2023/08/09 11:25:33;;;;;;;5.97;1.55;;;;;;;19.63;92.00;95927.59;5041074;28;25077;-74